createdAt,value
2023-03-13T00:01:14.324Z,2.28
2023-03-13T00:04:38.016Z,2.28
2023-03-13T00:07:44.724Z,2.23
2023-03-13T00:10:50.694Z,2.35
2023-03-13T00:13:58.862Z,2.35
2023-03-13T00:17:08.001Z,2.37
2023-03-13T00:20:17.976Z,2.32
2023-03-13T00:23:30.014Z,2.34
2023-03-13T00:26:37.061Z,2.32
2023-03-13T00:29:43.701Z,2.26
2023-03-13T00:32:51.634Z,2.31
2023-03-13T00:36:05.777Z,2.27
2023-03-13T00:39:13.340Z,2.44
2023-03-13T00:42:19.328Z,2.51
2023-03-13T00:45:27.100Z,2.40
2023-03-13T00:48:35.760Z,2.43
2023-03-13T00:51:45.149Z,2.38
2023-03-13T00:54:51.593Z,2.49
2023-03-13T00:57:58.279Z,2.55
2023-03-13T01:01:12.426Z,2.42
2023-03-13T01:04:25.317Z,2.39
2023-03-13T01:07:36.041Z,2.47
2023-03-13T01:10:42.679Z,2.51
2023-03-13T01:13:49.660Z,2.50
2023-03-13T01:16:56.440Z,2.57
2023-03-13T01:20:05.788Z,2.49
2023-03-13T01:23:16.053Z,2.58
2023-03-13T01:26:23.595Z,2.58
2023-03-13T01:29:30.430Z,2.63
2023-03-13T01:32:39.300Z,2.60
2023-03-13T01:35:46.513Z,2.61
2023-03-13T01:38:58.310Z,2.62
2023-03-13T01:42:16.137Z,2.70
2023-03-13T01:46:03.596Z,2.61
2023-03-13T01:49:24.477Z,2.66
2023-03-13T01:52:36.581Z,2.66
2023-03-13T01:55:57.538Z,2.49
2023-03-13T01:59:05.504Z,2.70
2023-03-13T02:02:26.537Z,2.74
2023-03-13T02:05:34.746Z,2.63
2023-03-13T02:08:51.358Z,2.66
2023-03-13T02:12:10.044Z,2.74
2023-03-13T02:15:26.168Z,2.72
2023-03-13T02:18:32.297Z,2.75
2023-03-13T02:21:59.148Z,2.69
2023-03-13T02:25:22.728Z,2.59
2023-03-13T02:28:39.387Z,2.69
2023-03-13T02:31:51.589Z,2.63
2023-03-13T02:35:11.740Z,2.75
2023-03-13T02:38:27.032Z,2.74
2023-03-13T02:41:39.980Z,2.63
2023-03-13T02:44:58.399Z,2.61
2023-03-13T02:48:05.947Z,2.67
2023-03-13T02:51:22.241Z,2.68
2023-03-13T02:54:38.697Z,2.66
2023-03-13T02:57:45.235Z,2.72
2023-03-13T03:00:55.207Z,2.83
2023-03-13T03:04:05.199Z,2.81
2023-03-13T03:07:15.779Z,2.80
2023-03-13T03:10:22.869Z,2.75
2023-03-13T03:13:31.028Z,2.71
2023-03-13T03:16:40.527Z,2.66
2023-03-13T03:19:48.646Z,2.74
2023-03-13T03:22:54.611Z,2.67
2023-03-13T03:26:01.492Z,2.57
2023-03-13T03:29:16.403Z,2.52
2023-03-13T03:32:40.758Z,2.46
2023-03-13T03:35:47.030Z,2.44
2023-03-13T03:38:54.787Z,2.42
2023-03-13T03:42:05.396Z,2.50
2023-03-13T03:45:13.872Z,2.61
2023-03-13T03:48:23.719Z,2.58
2023-03-13T03:51:35.042Z,2.65
2023-03-13T03:54:40.906Z,2.62
2023-03-13T03:57:47.570Z,2.68
2023-03-13T04:01:01.620Z,2.69
2023-03-13T04:04:10.995Z,2.72
2023-03-13T04:07:20.271Z,2.70
2023-03-13T04:10:27.453Z,2.72
2023-03-13T04:13:33.706Z,2.73
2023-03-13T04:16:40.544Z,2.78
2023-03-13T04:19:49.613Z,2.76
2023-03-13T04:22:56.747Z,2.88
2023-03-13T04:26:03.476Z,2.77
2023-03-13T04:29:10.916Z,2.75
2023-03-13T04:32:35.635Z,2.73
2023-03-13T04:36:01.071Z,2.79
2023-03-13T04:39:25.740Z,2.81
2023-03-13T04:42:51.129Z,2.87
2023-03-13T04:46:15.368Z,2.77
2023-03-13T04:49:42.297Z,2.74
2023-03-13T04:52:58.590Z,2.71
2023-03-13T04:56:42.399Z,2.81
2023-03-13T05:00:05.527Z,2.86
2023-03-13T05:03:22.736Z,2.88
2023-03-13T05:06:48.889Z,2.90
2023-03-13T05:10:20.027Z,2.87
2023-03-13T05:13:48.838Z,2.80
2023-03-13T05:17:27.253Z,2.88
2023-03-13T05:20:53.287Z,2.92
2023-03-13T05:24:32.498Z,2.97
2023-03-13T05:28:10.151Z,3.03
2023-03-13T05:31:25.945Z,3.07
2023-03-13T05:34:51.238Z,3.07
2023-03-13T05:38:16.827Z,3.10
2023-03-13T05:41:58.159Z,3.05
2023-03-13T05:45:25.962Z,3.09
2023-03-13T05:48:49.033Z,3.33
2023-03-13T05:52:14.295Z,3.25
2023-03-13T05:55:40.293Z,3.25
2023-03-13T05:59:07.240Z,3.22
2023-03-13T06:02:38.465Z,3.19
2023-03-13T06:05:46.754Z,3.10
2023-03-13T06:09:07.425Z,3.22
2023-03-13T06:12:15.947Z,3.24
2023-03-13T06:15:22.053Z,3.24
2023-03-13T06:18:41.277Z,3.22
2023-03-13T06:21:47.415Z,3.29
2023-03-13T06:24:54.084Z,3.34
2023-03-13T06:27:59.980Z,3.73
2023-03-13T06:31:09.526Z,3.93
2023-03-13T06:34:18.254Z,4.13
2023-03-13T06:37:25.206Z,4.46
2023-03-13T06:40:31.273Z,4.46
2023-03-13T06:43:40.920Z,4.47
2023-03-13T06:46:47.014Z,4.57
2023-03-13T06:49:56.315Z,4.53
2023-03-13T06:53:02.360Z,4.56
2023-03-13T06:56:10.247Z,4.52
2023-03-13T06:59:16.091Z,4.40
2023-03-13T07:02:22.935Z,4.66
2023-03-13T07:05:31.500Z,5.14
2023-03-13T07:08:39.899Z,5.25
2023-03-13T07:11:45.890Z,5.79
2023-03-13T07:14:52.551Z,6.08
2023-03-13T07:18:01.440Z,5.99
2023-03-13T07:21:14.885Z,5.92
2023-03-13T07:24:21.416Z,6.05
2023-03-13T07:27:28.425Z,6.30
2023-03-13T07:30:34.340Z,6.32
2023-03-13T07:33:41.528Z,6.59
2023-03-13T07:36:50.046Z,7.17
2023-03-13T07:39:56.769Z,7.86
2023-03-13T07:43:02.661Z,7.93
2023-03-13T07:46:12.413Z,7.89
2023-03-13T07:49:20.420Z,8.09
2023-03-13T07:52:30.095Z,8.49
2023-03-13T07:55:35.947Z,8.36
2023-03-13T07:58:46.109Z,8.22
2023-03-13T08:01:52.050Z,8.14
2023-03-13T08:04:59.146Z,8.49
2023-03-13T08:08:08.137Z,8.75
2023-03-13T08:11:17.790Z,8.43
2023-03-13T08:14:23.765Z,8.72
2023-03-13T08:17:34.006Z,8.73
2023-03-13T08:20:39.979Z,8.65
2023-03-13T08:23:49.299Z,9.06
2023-03-13T08:26:55.292Z,9.03
2023-03-13T08:30:01.987Z,9.16
2023-03-13T08:33:08.049Z,9.91
2023-03-13T08:36:18.172Z,10.64
2023-03-13T08:39:27.067Z,10.02
2023-03-13T08:42:40.489Z,9.85
2023-03-13T08:45:46.354Z,9.60
2023-03-13T08:48:54.297Z,9.33
2023-03-13T08:52:00.890Z,9.24
2023-03-13T08:55:12.310Z,9.61
2023-03-13T08:58:18.306Z,9.68
2023-03-13T09:01:27.679Z,9.85
2023-03-13T09:04:33.625Z,10.33
2023-03-13T09:07:40.308Z,10.63
2023-03-13T09:10:48.811Z,10.35
2023-03-13T09:13:56.507Z,10.72
2023-03-13T09:17:02.387Z,9.89
2023-03-13T09:20:11.633Z,10.05
2023-03-13T09:23:17.554Z,10.78
2023-03-13T09:26:27.904Z,10.49
2023-03-13T09:29:34.004Z,11.58
2023-03-13T09:32:40.688Z,11.90
2023-03-13T09:35:51.141Z,12.08
2023-03-13T09:39:02.198Z,11.04
2023-03-13T09:42:21.341Z,11.47
2023-03-13T09:45:37.888Z,11.67
2023-03-13T09:48:51.041Z,12.47
2023-03-13T09:52:17.964Z,13.11
2023-03-13T09:55:32.216Z,13.41
2023-03-13T09:58:51.379Z,13.20
2023-03-13T10:02:03.610Z,13.73
2023-03-13T10:05:21.834Z,13.27
2023-03-13T10:08:30.978Z,13.36
2023-03-13T10:11:51.071Z,12.48
2023-03-13T10:15:30.496Z,12.47
2023-03-13T10:18:37.284Z,12.48
2023-03-13T10:21:54.437Z,13.25
2023-03-13T10:25:12.059Z,13.22
2023-03-13T10:28:23.676Z,13.26
2023-03-13T10:31:38.774Z,13.94
2023-03-13T10:35:07.535Z,12.70
2023-03-13T10:38:25.764Z,12.02
2023-03-13T10:41:38.743Z,11.60
2023-03-13T10:44:48.294Z,11.24
2023-03-13T10:48:09.705Z,10.80
2023-03-13T10:51:26.275Z,10.28
2023-03-13T10:54:37.616Z,10.34
2023-03-13T10:58:09.531Z,10.29
2023-03-13T11:01:25.449Z,10.30
2023-03-13T11:04:40.374Z,10.07
2023-03-13T11:07:46.571Z,10.22
2023-03-13T11:11:07.851Z,10.12
2023-03-13T11:14:19.899Z,10.16
2023-03-13T11:17:40.434Z,10.01
2023-03-13T11:20:51.649Z,10.00
2023-03-13T11:24:15.112Z,9.83
2023-03-13T11:27:36.457Z,9.95
2023-03-13T11:31:02.706Z,9.89
2023-03-13T11:34:25.950Z,9.74
2023-03-13T11:37:41.983Z,9.50
2023-03-13T11:41:09.157Z,9.61
2023-03-13T11:44:53.110Z,9.87
2023-03-13T11:48:13.025Z,9.91
2023-03-13T11:51:36.600Z,9.67
2023-03-13T11:55:21.801Z,9.80
2023-03-13T11:59:16.655Z,9.75
2023-03-13T12:02:34.498Z,9.97
2023-03-13T12:05:58.592Z,10.04
2023-03-13T12:09:36.406Z,10.04
2023-03-13T12:12:58.338Z,10.33
2023-03-13T12:16:15.388Z,10.08
2023-03-13T12:19:33.817Z,9.88
2023-03-13T12:22:49.483Z,9.68
2023-03-13T12:26:06.112Z,9.53
2023-03-13T12:29:34.553Z,9.27
2023-03-13T12:32:51.466Z,9.00
2023-03-13T12:36:11.220Z,8.90
2023-03-13T12:39:43.370Z,8.95
2023-03-13T12:43:01.207Z,8.79
2023-03-13T12:46:37.259Z,8.84
2023-03-13T12:50:27.081Z,8.68
2023-03-13T12:54:15.368Z,8.43
2023-03-13T12:58:01.769Z,8.20
2023-03-13T13:01:19.790Z,8.12
2023-03-13T13:04:29.876Z,8.03
2023-03-13T13:07:41.112Z,8.02
2023-03-13T13:10:48.032Z,7.94
2023-03-13T13:13:54.850Z,7.91
2023-03-13T13:17:24.279Z,7.81
2023-03-13T13:20:48.825Z,7.80
2023-03-13T13:24:03.073Z,7.80
2023-03-13T13:27:49.672Z,7.54
2023-03-13T13:31:01.492Z,7.52
2023-03-13T13:34:11.040Z,7.42
2023-03-13T13:37:34.471Z,7.32
2023-03-13T13:40:41.159Z,7.24
2023-03-13T13:43:52.250Z,7.22
2023-03-13T13:47:04.994Z,7.14
2023-03-13T13:50:23.247Z,7.23
2023-03-13T13:53:41.471Z,7.24
2023-03-13T13:56:55.014Z,7.22
2023-03-13T14:00:28.504Z,7.25
2023-03-13T14:03:42.385Z,7.16
2023-03-13T14:07:00.423Z,7.18
2023-03-13T14:10:22.080Z,7.13
2023-03-13T14:13:28.790Z,6.92
2023-03-13T14:16:35.279Z,6.66
2023-03-13T14:19:46.592Z,6.41
2023-03-13T14:22:56.436Z,6.34
2023-03-13T14:26:16.359Z,6.22
2023-03-13T14:29:26.353Z,6.27
2023-03-13T14:32:33.621Z,6.31
2023-03-13T14:35:39.759Z,6.34
2023-03-13T14:38:59.475Z,6.40
2023-03-13T14:42:08.854Z,6.53
2023-03-13T14:45:32.573Z,6.45
2023-03-13T14:48:38.793Z,6.59
2023-03-13T14:51:56.496Z,6.65
2023-03-13T14:55:21.645Z,6.70
2023-03-13T14:58:49.990Z,6.79
2023-03-13T15:02:04.684Z,6.89
2023-03-13T15:05:36.458Z,6.95
2023-03-13T15:08:45.933Z,7.11
2023-03-13T15:12:05.130Z,7.14
2023-03-13T15:15:14.690Z,7.24
2023-03-13T15:18:25.943Z,7.32
2023-03-13T15:21:37.870Z,7.31
2023-03-13T15:25:05.297Z,7.27
2023-03-13T15:28:20.744Z,7.20
2023-03-13T15:31:32.836Z,7.19
2023-03-13T15:34:38.927Z,7.23
2023-03-13T15:37:46.126Z,7.28
2023-03-13T15:40:53.272Z,7.31
2023-03-13T15:44:05.811Z,7.26
2023-03-13T15:47:17.557Z,7.24
2023-03-13T15:50:31.089Z,7.30
2023-03-13T15:53:39.018Z,7.23
2023-03-13T15:56:48.181Z,7.23
2023-03-13T15:59:57.490Z,7.18
2023-03-13T16:03:04.472Z,7.18
2023-03-13T16:06:20.884Z,7.14
2023-03-13T16:09:28.042Z,7.16
2023-03-13T16:12:36.702Z,7.11
2023-03-13T16:15:49.438Z,6.97
2023-03-13T16:19:04.537Z,6.95
2023-03-13T16:22:11.638Z,6.89
2023-03-13T16:25:18.536Z,6.84
2023-03-13T16:28:26.069Z,6.84
2023-03-13T16:31:36.946Z,6.89
2023-03-13T16:34:50.679Z,6.88
2023-03-13T16:38:01.042Z,6.85
2023-03-13T16:41:13.051Z,6.89
2023-03-13T16:44:25.906Z,6.92
2023-03-13T16:47:38.892Z,6.90
2023-03-13T16:50:46.920Z,6.94
2023-03-13T16:53:59.917Z,6.92
2023-03-13T16:57:06.491Z,6.95
2023-03-13T17:00:20.466Z,6.97
2023-03-13T17:03:29.289Z,6.97
2023-03-13T17:06:40.214Z,7.03
2023-03-13T17:09:46.355Z,7.04
2023-03-13T17:12:57.823Z,7.04
2023-03-13T17:16:03.979Z,7.05
2023-03-13T17:19:17.163Z,6.96
2023-03-13T17:22:23.190Z,7.00
2023-03-13T17:25:30.271Z,7.10
2023-03-13T17:28:42.719Z,7.07
2023-03-13T17:31:49.603Z,7.07
2023-03-13T17:34:59.372Z,7.17
2023-03-13T17:38:15.139Z,7.21
2023-03-13T17:41:26.429Z,7.28
2023-03-13T17:44:35.587Z,7.37
2023-03-13T17:47:42.068Z,7.36
2023-03-13T17:50:51.580Z,7.36
2023-03-13T17:53:59.554Z,7.41
2023-03-13T17:57:18.784Z,7.35
2023-03-13T18:00:29.486Z,7.40
2023-03-13T18:03:36.178Z,7.43
2023-03-13T18:06:47.941Z,7.49
2023-03-13T18:09:54.863Z,7.60
2023-03-13T18:13:01.321Z,7.60
2023-03-13T18:16:27.076Z,7.61
2023-03-13T18:19:33.037Z,7.63
2023-03-13T18:22:42.524Z,7.58
2023-03-13T18:25:48.489Z,7.54
2023-03-13T18:29:00.267Z,7.56
2023-03-13T18:32:06.208Z,7.63
2023-03-13T18:35:14.347Z,7.67
2023-03-13T18:38:27.189Z,7.78
2023-03-13T18:41:33.938Z,7.75
2023-03-13T18:44:40.234Z,7.76
2023-03-13T18:47:48.447Z,7.83
2023-03-13T18:50:54.369Z,7.94
2023-03-13T18:54:03.699Z,8.02
2023-03-13T18:57:16.706Z,8.03
2023-03-13T19:00:31.926Z,8.06
2023-03-13T19:03:38.043Z,8.16
2023-03-13T19:06:48.832Z,8.16
2023-03-13T19:09:58.269Z,8.13
2023-03-13T19:13:05.070Z,8.13
2023-03-13T19:16:18.768Z,8.18
2023-03-13T19:19:29.012Z,8.23
2023-03-13T19:22:35.174Z,8.25
2023-03-13T19:25:44.667Z,8.24
2023-03-13T19:28:50.742Z,8.32
2023-03-13T19:31:59.361Z,8.34
2023-03-13T19:35:05.483Z,8.29
2023-03-13T19:38:15.879Z,8.28
2023-03-13T19:41:24.503Z,8.20
2023-03-13T19:44:32.321Z,8.26
2023-03-13T19:47:40.788Z,8.15
2023-03-13T19:50:59.378Z,8.13
2023-03-13T19:54:05.274Z,8.13
2023-03-13T19:57:14.978Z,8.21
2023-03-13T20:00:34.750Z,8.20
2023-03-13T20:03:50.453Z,8.25
2023-03-13T20:06:56.551Z,8.29
2023-03-13T20:10:09.755Z,8.34
2023-03-13T20:13:18.521Z,8.39
2023-03-13T20:16:27.830Z,8.46
2023-03-13T20:19:33.831Z,8.50
2023-03-13T20:22:40.624Z,8.58
2023-03-13T20:25:46.552Z,8.55
2023-03-13T20:28:58.036Z,8.51
2023-03-13T20:32:28.566Z,8.55
2023-03-13T20:35:35.863Z,8.52
2023-03-13T20:38:43.944Z,8.49
2023-03-13T20:41:50.752Z,8.56
2023-03-13T20:44:59.357Z,8.51
2023-03-13T20:48:06.137Z,8.55
2023-03-13T20:51:13.453Z,8.57
2023-03-13T20:54:20.219Z,8.55
2023-03-13T20:57:26.227Z,8.51
2023-03-13T21:00:36.129Z,8.47
2023-03-13T21:03:42.085Z,8.48
2023-03-13T21:06:50.173Z,8.41
2023-03-13T21:09:55.985Z,8.43
2023-03-13T21:13:08.688Z,8.30
2023-03-13T21:16:19.129Z,8.23
2023-03-13T21:19:26.362Z,8.24
2023-03-13T21:22:32.320Z,8.15
2023-03-13T21:25:39.137Z,8.08
2023-03-13T21:28:45.103Z,8.06
2023-03-13T21:31:59.058Z,8.02
2023-03-13T21:35:08.264Z,7.96
2023-03-13T21:38:16.927Z,7.96
2023-03-13T21:41:26.170Z,7.98
2023-03-13T21:44:32.772Z,7.98
2023-03-13T21:47:48.027Z,8.03
2023-03-13T21:50:56.122Z,8.07
2023-03-13T21:54:04.094Z,8.06
2023-03-13T21:57:16.371Z,8.06
2023-03-13T22:00:23.697Z,8.08
2023-03-13T22:03:38.745Z,8.12
2023-03-13T22:06:44.827Z,8.07
2023-03-13T22:09:51.503Z,8.09
2023-03-13T22:13:03.784Z,8.07
2023-03-13T22:16:25.589Z,8.04
2023-03-13T22:19:34.488Z,8.01
2023-03-13T22:22:41.172Z,8.03
2023-03-13T22:25:48.345Z,7.99
2023-03-13T22:28:55.185Z,8.04
2023-03-13T22:32:04.702Z,8.00
2023-03-13T22:35:14.360Z,7.97
2023-03-13T22:38:20.644Z,8.08
2023-03-13T22:41:27.445Z,7.99
2023-03-13T22:44:38.666Z,8.02
2023-03-13T22:47:45.481Z,7.98
2023-03-13T22:51:09.827Z,8.01
2023-03-13T22:54:16.595Z,8.06
2023-03-13T22:57:34.621Z,8.11
2023-03-13T23:00:41.271Z,8.07
2023-03-13T23:03:48.578Z,8.12
2023-03-13T23:06:58.027Z,8.21
2023-03-13T23:10:11.801Z,8.26
2023-03-13T23:13:27.316Z,8.30
2023-03-13T23:16:34.013Z,8.29
2023-03-13T23:19:40.826Z,8.28
2023-03-13T23:22:52.457Z,8.29
2023-03-13T23:26:02.025Z,8.31
2023-03-13T23:29:18.510Z,8.35
2023-03-13T23:32:26.425Z,8.32
2023-03-13T23:35:32.559Z,8.29
2023-03-13T23:38:42.512Z,8.34
2023-03-13T23:41:48.446Z,8.32
2023-03-13T23:44:55.181Z,8.30
2023-03-13T23:48:01.001Z,8.26
2023-03-13T23:51:11.277Z,8.22
2023-03-13T23:54:21.609Z,8.24
2023-03-13T23:57:28.591Z,8.16
